sensor_id;sensor_type;location;lat;lon;timestamp;pressure;altitude;pressure_sealevel;temperature;humidity
5877;BME280;2964;42.144;24.730;2023-05-22T00:00:28;145436.53;;;15.56;100.00
5877;BME280;2964;42.144;24.730;2023-05-22T00:02:56;145460.47;;;15.66;100.00
5877;BME280;2964;42.144;24.730;2023-05-22T00:05:24;145449.16;;;15.61;100.00
5877;BME280;2964;42.144;24.730;2023-05-22T00:07:50;145471.84;;;15.70;100.00
5877;BME280;2964;42.144;24.730;2023-05-22T00:10:17;145447.91;;;15.60;100.00
5877;BME280;2964;42.144;24.730;2023-05-22T00:12:44;145440.31;;;15.57;100.00
5877;BME280;2964;42.144;24.730;2023-05-22T00:15:10;145441.56;;;15.58;100.00
5877;BME280;2964;42.144;24.730;2023-05-22T00:17:37;145440.31;;;15.57;100.00
5877;BME280;2964;42.144;24.730;2023-05-22T00:20:05;145450.41;;;15.61;100.00
5877;BME280;2964;42.144;24.730;2023-05-22T00:22:34;145437.78;;;15.56;100.00
5877;BME280;2964;42.144;24.730;2023-05-22T00:25:01;145435.28;;;15.55;100.00
5877;BME280;2964;42.144;24.730;2023-05-22T00:27:28;145425.22;;;15.51;100.00
5877;BME280;2964;42.144;24.730;2023-05-22T00:29:55;145428.94;;;15.53;100.00
5877;BME280;2964;42.144;24.730;2023-05-22T00:32:21;145442.81;;;15.58;100.00
5877;BME280;2964;42.144;24.730;2023-05-22T00:34:48;145476.91;;;15.72;100.00
5877;BME280;2964;42.144;24.730;2023-05-22T00:37:15;145470.59;;;15.70;100.00
5877;BME280;2964;42.144;24.730;2023-05-22T00:39:43;145497.09;;;15.80;100.00
5877;BME280;2964;42.144;24.730;2023-05-22T00:42:10;145521.09;;;15.90;100.00
5877;BME280;2964;42.144;24.730;2023-05-22T00:44:36;145480.72;;;15.74;100.00
5877;BME280;2964;42.144;24.730;2023-05-22T00:47:04;145542.50;;;15.99;100.00
5877;BME280;2964;42.144;24.730;2023-05-22T00:49:30;145545.06;;;16.00;100.00
5877;BME280;2964;42.144;24.730;2023-05-22T00:51:58;145556.44;;;16.05;100.00
5877;BME280;2964;42.144;24.730;2023-05-22T00:54:26;145561.47;;;16.07;100.00
5877;BME280;2964;42.144;24.730;2023-05-22T00:56:55;145565.22;;;16.08;100.00
5877;BME280;2964;42.144;24.730;2023-05-22T00:59:22;145528.63;;;15.93;100.00
5877;BME280;2964;42.144;24.730;2023-05-22T01:01:49;145572.78;;;16.11;100.00
5877;BME280;2964;42.144;24.730;2023-05-22T01:04:16;145558.91;;;16.06;100.00
5877;BME280;2964;42.144;24.730;2023-05-22T01:06:43;145563.97;;;16.08;100.00
5877;BME280;2964;42.144;24.730;2023-05-22T01:09:12;145538.75;;;15.97;100.00
5877;BME280;2964;42.144;24.730;2023-05-22T01:11:43;145521.09;;;15.90;100.00
5877;BME280;2964;42.144;24.730;2023-05-22T01:14:24;145532.44;;;15.95;100.00
5877;BME280;2964;42.144;24.730;2023-05-22T01:17:00;145579.13;;;16.14;100.00
5877;BME280;2964;42.144;24.730;2023-05-22T01:19:45;145590.47;;;16.18;100.00
5877;BME280;2964;42.144;24.730;2023-05-22T01:22:24;145587.91;;;16.17;100.00
5877;BME280;2964;42.144;24.730;2023-05-22T01:25:17;145542.50;;;15.99;100.00
5877;BME280;2964;42.144;24.730;2023-05-22T01:28:08;145524.88;;;15.92;100.00
5877;BME280;2964;42.144;24.730;2023-05-22T01:30:46;145508.47;;;15.85;100.00
5877;BME280;2964;42.144;24.730;2023-05-22T01:33:14;145483.22;;;15.75;100.00
5877;BME280;2964;42.144;24.730;2023-05-22T01:35:42;145492.06;;;15.78;100.00
5877;BME280;2964;42.144;24.730;2023-05-22T01:38:11;145508.47;;;15.85;100.00
5877;BME280;2964;42.144;24.730;2023-05-22T01:40:39;145465.53;;;15.68;100.00
5877;BME280;2964;42.144;24.730;2023-05-22T01:43:06;145480.72;;;15.74;100.00
5877;BME280;2964;42.144;24.730;2023-05-22T01:45:33;145473.09;;;15.71;100.00
5877;BME280;2964;42.144;24.730;2023-05-22T01:48:01;145473.09;;;15.71;100.00
5877;BME280;2964;42.144;24.730;2023-05-22T01:50:28;145460.47;;;15.66;100.00
5877;BME280;2964;42.144;24.730;2023-05-22T01:53:03;145460.47;;;15.66;100.00
5877;BME280;2964;42.144;24.730;2023-05-22T01:55:36;145420.13;;;15.49;100.00
5877;BME280;2964;42.144;24.730;2023-05-22T01:58:11;145442.81;;;15.58;100.00
5877;BME280;2964;42.144;24.730;2023-05-22T02:00:42;145435.28;;;15.55;100.00
5877;BME280;2964;42.144;24.730;2023-05-22T02:03:14;145428.94;;;15.53;100.00
5877;BME280;2964;42.144;24.730;2023-05-22T02:05:43;145417.63;;;15.48;100.00
5877;BME280;2964;42.144;24.730;2023-05-22T02:08:12;145427.72;;;15.52;100.00
5877;BME280;2964;42.144;24.730;2023-05-22T02:10:40;145415.09;;;15.47;100.00
5877;BME280;2964;42.144;24.730;2023-05-22T02:13:08;145420.13;;;15.49;100.00
5877;BME280;2964;42.144;24.730;2023-05-22T02:15:35;145452.94;;;15.62;100.00
5877;BME280;2964;42.144;24.730;2023-05-22T02:18:02;145455.44;;;15.63;100.00
5877;BME280;2964;42.144;24.730;2023-05-22T02:20:30;145422.66;;;15.50;100.00
5877;BME280;2964;42.144;24.730;2023-05-22T02:22:57;145452.94;;;15.62;100.00
5877;BME280;2964;42.144;24.730;2023-05-22T02:25:24;145457.97;;;15.64;100.00
5877;BME280;2964;42.144;24.730;2023-05-22T02:27:50;145505.94;;;15.84;100.00
5877;BME280;2964;42.144;24.730;2023-05-22T02:30:17;145471.84;;;15.70;100.00
5877;BME280;2964;42.144;24.730;2023-05-22T02:32:44;145507.22;;;15.85;100.00
5877;BME280;2964;42.144;24.730;2023-05-22T02:35:10;145471.84;;;15.70;100.00
5877;BME280;2964;42.144;24.730;2023-05-22T02:37:38;145473.09;;;15.71;100.00
5877;BME280;2964;42.144;24.730;2023-05-22T02:40:06;145466.81;;;15.68;100.00
5877;BME280;2964;42.144;24.730;2023-05-22T02:42:34;145470.59;;;15.70;100.00
5877;BME280;2964;42.144;24.730;2023-05-22T02:45:01;145492.06;;;15.78;100.00
5877;BME280;2964;42.144;24.730;2023-05-22T02:47:27;145498.38;;;15.81;100.00
5877;BME280;2964;42.144;24.730;2023-05-22T02:49:54;145468.06;;;15.69;100.00
5877;BME280;2964;42.144;24.730;2023-05-22T02:52:22;145442.81;;;15.58;100.00
5877;BME280;2964;42.144;24.730;2023-05-22T02:54:50;145427.72;;;15.52;100.00
5877;BME280;2964;42.144;24.730;2023-05-22T02:57:17;145442.81;;;15.58;100.00
5877;BME280;2964;42.144;24.730;2023-05-22T02:59:43;145432.75;;;15.54;100.00
5877;BME280;2964;42.144;24.730;2023-05-22T03:02:10;145425.22;;;15.51;100.00
5877;BME280;2964;42.144;24.730;2023-05-22T03:04:38;145435.28;;;15.55;100.00
5877;BME280;2964;42.144;24.730;2023-05-22T03:07:05;145412.59;;;15.46;100.00
5877;BME280;2964;42.144;24.730;2023-05-22T03:09:32;145431.50;;;15.54;100.00
5877;BME280;2964;42.144;24.730;2023-05-22T03:12:00;145426.47;;;15.52;100.00
5877;BME280;2964;42.144;24.730;2023-05-22T03:14:27;145393.69;;;15.38;100.00
5877;BME280;2964;42.144;24.730;2023-05-22T03:16:54;145398.72;;;15.40;100.00
5877;BME280;2964;42.144;24.730;2023-05-22T03:19:21;145376.03;;;15.31;100.00
5877;BME280;2964;42.144;24.730;2023-05-22T03:21:48;145410.06;;;15.45;100.00
5877;BME280;2964;42.144;24.730;2023-05-22T03:24:14;145417.63;;;15.48;100.00
5877;BME280;2964;42.144;24.730;2023-05-22T03:26:41;145413.84;;;15.47;100.00
5877;BME280;2964;42.144;24.730;2023-05-22T03:29:09;145413.84;;;15.47;100.00
5877;BME280;2964;42.144;24.730;2023-05-22T03:31:36;145413.84;;;15.47;100.00
5877;BME280;2964;42.144;24.730;2023-05-22T03:34:02;145445.38;;;15.59;100.00
5877;BME280;2964;42.144;24.730;2023-05-22T03:36:30;145465.53;;;15.68;100.00
5877;BME280;2964;42.144;24.730;2023-05-22T03:38:58;145465.53;;;15.68;100.00
5877;BME280;2964;42.144;24.730;2023-05-22T03:41:25;145495.84;;;15.80;100.00
5877;BME280;2964;42.144;24.730;2023-05-22T03:43:51;145488.31;;;15.77;100.00
5877;BME280;2964;42.144;24.730;2023-05-22T03:46:20;145500.88;;;15.82;100.00
5877;BME280;2964;42.144;24.730;2023-05-22T03:48:46;145504.69;;;15.83;100.00
5877;BME280;2964;42.144;24.730;2023-05-22T03:51:13;145511.03;;;15.86;100.00
5877;BME280;2964;42.144;24.730;2023-05-22T03:53:40;145518.56;;;15.89;100.00
5877;BME280;2964;42.144;24.730;2023-05-22T03:56:07;145518.56;;;15.89;100.00
5877;BME280;2964;42.144;24.730;2023-05-22T03:58:33;145526.13;;;15.92;100.00
5877;BME280;2964;42.144;24.730;2023-05-22T04:01:00;145548.84;;;16.01;100.00
5877;BME280;2964;42.144;24.730;2023-05-22T04:03:29;145538.75;;;15.97;100.00
5877;BME280;2964;42.144;24.730;2023-05-22T04:05:56;145560.16;;;16.06;100.00
5877;BME280;2964;42.144;24.730;2023-05-22T04:08:22;145546.28;;;16.00;100.00
5877;BME280;2964;42.144;24.730;2023-05-22T04:10:49;145543.81;;;15.99;100.00
5877;BME280;2964;42.144;24.730;2023-05-22T04:13:18;145572.78;;;16.11;100.00
5877;BME280;2964;42.144;24.730;2023-05-22T04:15:45;145538.75;;;15.97;100.00
5877;BME280;2964;42.144;24.730;2023-05-22T04:18:12;145555.13;;;16.04;100.00
5877;BME280;2964;42.144;24.730;2023-05-22T04:20:40;145601.84;;;16.23;100.00
5877;BME280;2964;42.144;24.730;2023-05-22T04:23:07;145692.69;;;16.60;100.00
5877;BME280;2964;42.144;24.730;2023-05-22T04:25:33;145773.47;;;16.93;100.00
5877;BME280;2964;42.144;24.730;2023-05-22T04:28:00;145794.94;;;17.02;100.00
5877;BME280;2964;42.144;24.730;2023-05-22T04:30:28;145821.47;;;17.12;100.00
5877;BME280;2964;42.144;24.730;2023-05-22T04:32:54;145760.88;;;16.88;100.00
5877;BME280;2964;42.144;24.730;2023-05-22T04:35:21;145741.84;;;16.80;100.00
5877;BME280;2964;42.144;24.730;2023-05-22T04:37:50;145776.00;;;16.94;100.00
5877;BME280;2964;42.144;24.730;2023-05-22T04:40:16;145812.63;;;17.09;100.00
5877;BME280;2964;42.144;24.730;2023-05-22T04:42:43;145820.22;;;17.12;100.00
5877;BME280;2964;42.144;24.730;2023-05-22T04:45:10;145803.78;;;17.05;100.00
5877;BME280;2964;42.144;24.730;2023-05-22T04:47:38;145738.13;;;16.78;100.00
5877;BME280;2964;42.144;24.730;2023-05-22T04:50:06;145760.88;;;16.88;100.00
5877;BME280;2964;42.144;24.730;2023-05-22T04:52:33;145786.09;;;16.98;100.00
5877;BME280;2964;42.144;24.730;2023-05-22T04:55:01;145702.75;;;16.64;100.00
5877;BME280;2964;42.144;24.730;2023-05-22T04:57:28;145859.31;;;17.28;100.00
5877;BME280;2964;42.144;24.730;2023-05-22T04:59:54;145893.44;;;17.42;100.00
5877;BME280;2964;42.144;24.730;2023-05-22T05:02:21;146063.97;;;18.11;100.00
5877;BME280;2964;42.144;24.730;2023-05-22T05:04:48;146089.25;;;18.21;99.73
5877;BME280;2964;42.144;24.730;2023-05-22T05:07:15;146110.75;;;18.30;98.66
5877;BME280;2964;42.144;24.730;2023-05-22T05:09:42;146024.81;;;17.95;99.74
5877;BME280;2964;42.144;24.730;2023-05-22T05:12:10;146018.47;;;17.92;100.00
5877;BME280;2964;42.144;24.730;2023-05-22T05:14:37;145972.97;;;17.74;100.00
5877;BME280;2964;42.144;24.730;2023-05-22T05:17:04;145993.19;;;17.82;100.00
5877;BME280;2964;42.144;24.730;2023-05-22T05:19:31;145940.13;;;17.61;100.00
5877;BME280;2964;42.144;24.730;2023-05-22T05:21:58;145904.78;;;17.46;100.00
5877;BME280;2964;42.144;24.730;2023-05-22T05:24:25;145917.41;;;17.51;100.00
5877;BME280;2964;42.144;24.730;2023-05-22T05:26:52;145921.22;;;17.53;100.00
5877;BME280;2964;42.144;24.730;2023-05-22T05:29:20;146018.47;;;17.92;100.00
5877;BME280;2964;42.144;24.730;2023-05-22T05:31:46;146239.66;;;18.82;100.00
5877;BME280;2964;42.144;24.730;2023-05-22T05:34:13;146473.66;;;19.77;93.92
5877;BME280;2964;42.144;24.730;2023-05-22T05:36:40;146447.03;;;19.66;93.84
5877;BME280;2964;42.144;24.730;2023-05-22T05:39:07;146520.44;;;19.96;92.28
5877;BME280;2964;42.144;24.730;2023-05-22T05:41:33;146371.16;;;19.36;94.39
5877;BME280;2964;42.144;24.730;2023-05-22T05:44:00;146305.44;;;19.09;95.21
5877;BME280;2964;42.144;24.730;2023-05-22T05:46:28;146285.19;;;19.01;96.23
5877;BME280;2964;42.144;24.730;2023-05-22T05:48:56;146190.31;;;18.62;97.07
5877;BME280;2964;42.144;24.730;2023-05-22T05:51:23;146086.69;;;18.20;98.35
5877;BME280;2964;42.144;24.730;2023-05-22T05:53:50;146056.41;;;18.08;100.00
5877;BME280;2964;42.144;24.730;2023-05-22T05:56:17;146112.00;;;18.30;98.98
5877;BME280;2964;42.144;24.730;2023-05-22T05:58:44;146069.06;;;18.13;100.00
5877;BME280;2964;42.144;24.730;2023-05-22T06:01:10;146119.59;;;18.33;100.00
5877;BME280;2964;42.144;24.730;2023-05-22T06:03:38;146240.94;;;18.83;100.00
5877;BME280;2964;42.144;24.730;2023-05-22T06:06:05;146288.97;;;19.02;96.80
5877;BME280;2964;42.144;24.730;2023-05-22T06:08:32;146449.56;;;19.67;94.02
5877;BME280;2964;42.144;24.730;2023-05-22T06:10:59;146615.34;;;20.35;91.67
5877;BME280;2964;42.144;24.730;2023-05-22T06:13:26;146478.72;;;19.79;90.45
5877;BME280;2964;42.144;24.730;2023-05-22T06:15:52;146392.66;;;19.44;92.60
5877;BME280;2964;42.144;24.730;2023-05-22T06:18:19;146835.63;;;21.24;91.73
5877;BME280;2964;42.144;24.730;2023-05-22T06:20:49;147199.28;;;22.71;83.42
5877;BME280;2964;42.144;24.730;2023-05-22T06:23:15;147163.78;;;22.57;79.16
5877;BME280;2964;42.144;24.730;2023-05-22T06:25:42;147525.28;;;24.03;75.61
5877;BME280;2964;42.144;24.730;2023-05-22T06:28:09;148078.91;;;26.27;69.41
5877;BME280;2964;42.144;24.730;2023-05-22T06:30:36;147962.00;;;25.80;64.49
5877;BME280;2964;42.144;24.730;2023-05-22T06:33:03;148152.59;;;26.57;62.74
5877;BME280;2964;42.144;24.730;2023-05-22T06:35:29;148460.31;;;27.81;59.48
5877;BME280;2964;42.144;24.730;2023-05-22T06:37:58;148539.25;;;28.13;55.47
5877;BME280;2964;42.144;24.730;2023-05-22T06:40:24;148713.56;;;28.83;55.70
5877;BME280;2964;42.144;24.730;2023-05-22T06:42:51;149198.81;;;30.79;50.11
5877;BME280;2964;42.144;24.730;2023-05-22T06:45:18;148902.00;;;29.59;46.50
5877;BME280;2964;42.144;24.730;2023-05-22T06:47:45;148856.16;;;29.41;48.91
5877;BME280;2964;42.144;24.730;2023-05-22T06:50:11;149189.91;;;30.75;47.21
5877;BME280;2964;42.144;24.730;2023-05-22T06:52:38;149195.00;;;30.77;46.35
5877;BME280;2964;42.144;24.730;2023-05-22T06:55:08;149045.91;;;30.17;48.81
5877;BME280;2964;42.144;24.730;2023-05-22T06:57:34;149441.03;;;31.77;45.63
5877;BME280;2964;42.144;24.730;2023-05-22T07:00:02;149500.97;;;32.01;43.92
5877;BME280;2964;42.144;24.730;2023-05-22T07:02:31;149648.94;;;32.60;43.15
5877;BME280;2964;42.144;24.730;2023-05-22T07:04:58;149714.00;;;32.86;40.68
5877;BME280;2964;42.144;24.730;2023-05-22T07:07:25;149526.47;;;32.11;42.91
5877;BME280;2964;42.144;24.730;2023-05-22T07:09:52;149793.16;;;33.18;41.34
5877;BME280;2964;42.144;24.730;2023-05-22T07:12:20;149731.84;;;32.94;38.87
5877;BME280;2964;42.144;24.730;2023-05-22T07:14:50;150096.97;;;34.40;37.70
5877;BME280;2964;42.144;24.730;2023-05-22T07:17:17;149938.63;;;33.77;38.81
5877;BME280;2964;42.144;24.730;2023-05-22T07:19:44;149914.41;;;33.67;37.51
5877;BME280;2964;42.144;24.730;2023-05-22T07:22:11;150090.56;;;34.38;33.21
5877;BME280;2964;42.144;24.730;2023-05-22T07:24:40;149404.09;;;31.62;36.92
5877;BME280;2964;42.144;24.730;2023-05-22T07:27:06;149489.47;;;31.96;36.03
5877;BME280;2964;42.144;24.730;2023-05-22T07:29:37;149393.84;;;31.58;38.04
5877;BME280;2964;42.144;24.730;2023-05-22T07:32:04;149219.19;;;30.87;37.87
5877;BME280;2964;42.144;24.730;2023-05-22T07:34:31;148707.19;;;28.81;37.63
5877;BME280;2964;42.144;24.730;2023-05-22T07:36:58;148888.00;;;29.54;38.75
5877;BME280;2964;42.144;24.730;2023-05-22T07:39:25;148419.66;;;27.65;41.65
5877;BME280;2964;42.144;24.730;2023-05-22T07:41:52;148880.34;;;29.51;39.55
5877;BME280;2964;42.144;24.730;2023-05-22T07:44:19;149158.03;;;30.63;36.85
5877;BME280;2964;42.144;24.730;2023-05-22T07:46:47;148440.00;;;27.73;40.17
5877;BME280;2964;42.144;24.730;2023-05-22T07:49:14;148607.94;;;28.41;43.55
5877;BME280;2964;42.144;24.730;2023-05-22T07:51:43;149356.84;;;31.43;37.56
5877;BME280;2964;42.144;24.730;2023-05-22T07:54:12;149191.16;;;30.76;38.32
5877;BME280;2964;42.144;24.730;2023-05-22T07:56:39;149326.28;;;31.30;37.46
5877;BME280;2964;42.144;24.730;2023-05-22T07:59:06;148653.78;;;28.59;39.19
5877;BME280;2964;42.144;24.730;2023-05-22T08:01:35;148521.44;;;28.06;42.84
5877;BME280;2964;42.144;24.730;2023-05-22T08:04:04;148902.00;;;29.59;42.04
5877;BME280;2964;42.144;24.730;2023-05-22T08:06:31;149056.13;;;30.21;39.64
5877;BME280;2964;42.144;24.730;2023-05-22T08:08:59;148770.81;;;29.06;41.11
5877;BME280;2964;42.144;24.730;2023-05-22T08:11:26;148732.66;;;28.91;40.02
5877;BME280;2964;42.144;24.730;2023-05-22T08:13:53;149025.53;;;30.09;38.48
5877;BME280;2964;42.144;24.730;2023-05-22T08:16:20;148809.06;;;29.22;37.82
5877;BME280;2964;42.144;24.730;2023-05-22T08:18:48;148509.97;;;28.01;40.81
5877;BME280;2964;42.144;24.730;2023-05-22T08:21:16;148522.69;;;28.06;41.66
5877;BME280;2964;42.144;24.730;2023-05-22T08:23:42;148691.94;;;28.75;38.71
5877;BME280;2964;42.144;24.730;2023-05-22T08:26:13;148627.00;;;28.48;40.83
5877;BME280;2964;42.144;24.730;2023-05-22T08:28:43;148863.81;;;29.44;38.24
5877;BME280;2964;42.144;24.730;2023-05-22T08:31:10;149382.41;;;31.53;34.37
5877;BME280;2964;42.144;24.730;2023-05-22T08:33:37;149867.16;;;33.48;30.86
5877;BME280;2964;42.144;24.730;2023-05-22T08:36:04;150183.84;;;34.75;28.98
5877;BME280;2964;42.144;24.730;2023-05-22T08:38:32;150082.94;;;34.35;29.27
5877;BME280;2964;42.144;24.730;2023-05-22T08:40:59;150546.75;;;36.21;26.02
5877;BME280;2964;42.144;24.730;2023-05-22T08:43:26;150042.09;;;34.18;26.87
5877;BME280;2964;42.144;24.730;2023-05-22T08:45:58;149969.28;;;33.89;28.15
5877;BME280;2964;42.144;24.730;2023-05-22T08:48:28;150435.56;;;35.77;25.63
5877;BME280;2964;42.144;24.730;2023-05-22T08:50:57;150153.13;;;34.63;28.24
5877;BME280;2964;42.144;24.730;2023-05-22T08:53:28;150254.06;;;35.04;27.00
5877;BME280;2964;42.144;24.730;2023-05-22T08:55:58;150677.13;;;36.74;25.90
5877;BME280;2964;42.144;24.730;2023-05-22T08:58:26;150819.09;;;37.31;24.29
5877;BME280;2964;42.144;24.730;2023-05-22T09:00:53;151007.13;;;38.06;24.29
5877;BME280;2964;42.144;24.730;2023-05-22T09:03:20;150034.34;;;34.15;27.22
5877;BME280;2964;42.144;24.730;2023-05-22T09:05:47;149814.81;;;33.27;29.86
5877;BME280;2964;42.144;24.730;2023-05-22T09:08:15;150024.16;;;34.11;28.73
5877;BME280;2964;42.144;24.730;2023-05-22T09:10:42;149726.75;;;32.92;30.24
5877;BME280;2964;42.144;24.730;2023-05-22T09:13:22;150114.84;;;34.48;27.86
5877;BME280;2964;42.144;24.730;2023-05-22T09:15:49;150098.22;;;34.41;26.62
5877;BME280;2964;42.144;24.730;2023-05-22T09:18:16;149677.00;;;32.72;30.24
5877;BME280;2964;42.144;24.730;2023-05-22T09:20:43;149781.66;;;33.14;29.70
5877;BME280;2964;42.144;24.730;2023-05-22T09:23:10;149793.16;;;33.18;29.74
5877;BME280;2964;42.144;24.730;2023-05-22T09:25:40;149772.66;;;33.10;29.67
5877;BME280;2964;42.144;24.730;2023-05-22T09:28:11;149465.25;;;31.86;30.67
5877;BME280;2964;42.144;24.730;2023-05-22T09:30:37;149384.97;;;31.54;31.62
5877;BME280;2964;42.144;24.730;2023-05-22T09:33:07;149033.19;;;30.12;32.27
5877;BME280;2964;42.144;24.730;2023-05-22T09:35:35;148559.56;;;28.21;36.13
5877;BME280;2964;42.144;24.730;2023-05-22T09:38:03;148275.94;;;27.07;37.13
5877;BME280;2964;42.144;24.730;2023-05-22T09:40:32;148127.22;;;26.47;38.18
5877;BME280;2964;42.144;24.730;2023-05-22T09:43:00;148391.66;;;27.53;38.36
5877;BME280;2964;42.144;24.730;2023-05-22T09:45:28;148760.66;;;29.02;36.71
5877;BME280;2964;42.144;24.730;2023-05-22T09:47:55;148849.81;;;29.38;33.62
5877;BME280;2964;42.144;24.730;2023-05-22T09:50:22;148672.84;;;28.67;34.42
5877;BME280;2964;42.144;24.730;2023-05-22T09:52:50;148392.94;;;27.54;37.54
5877;BME280;2964;42.144;24.730;2023-05-22T09:55:19;148633.34;;;28.51;36.10
5877;BME280;2964;42.144;24.730;2023-05-22T09:57:50;148567.22;;;28.24;37.12
5877;BME280;2964;42.144;24.730;2023-05-22T10:00:18;148638.47;;;28.53;37.29
5877;BME280;2964;42.144;24.730;2023-05-22T10:02:52;148539.25;;;28.13;36.82
5877;BME280;2964;42.144;24.730;2023-05-22T10:05:19;148218.75;;;26.84;38.68
5877;BME280;2964;42.144;24.730;2023-05-22T10:07:49;148132.31;;;26.49;38.59
5877;BME280;2964;42.144;24.730;2023-05-22T10:10:17;148035.69;;;26.10;39.96
5877;BME280;2964;42.144;24.730;2023-05-22T10:12:49;148127.22;;;26.47;40.25
5877;BME280;2964;42.144;24.730;2023-05-22T10:15:17;148096.72;;;26.34;40.96
5877;BME280;2964;42.144;24.730;2023-05-22T10:17:45;148075.09;;;26.26;40.75
5877;BME280;2964;42.144;24.730;2023-05-22T10:20:13;148025.56;;;26.06;41.81
5877;BME280;2964;42.144;24.730;2023-05-22T10:22:41;147908.69;;;25.58;41.26
5877;BME280;2964;42.144;24.730;2023-05-22T10:25:08;147791.81;;;25.11;41.20
5877;BME280;2964;42.144;24.730;2023-05-22T10:27:35;147786.75;;;25.09;40.79
5877;BME280;2964;42.144;24.730;2023-05-22T10:30:12;147708.06;;;24.77;40.13
5877;BME280;2964;42.144;24.730;2023-05-22T10:32:45;147669.94;;;24.62;41.76
5877;BME280;2964;42.144;24.730;2023-05-22T10:35:18;147626.78;;;24.44;42.85
5877;BME280;2964;42.144;24.730;2023-05-22T10:37:49;147588.72;;;24.29;43.94
5877;BME280;2964;42.144;24.730;2023-05-22T10:40:20;147520.19;;;24.01;43.94
5877;BME280;2964;42.144;24.730;2023-05-22T10:42:56;147591.25;;;24.30;44.06
5877;BME280;2964;42.144;24.730;2023-05-22T10:45:24;147558.28;;;24.17;42.78
5877;BME280;2964;42.144;24.730;2023-05-22T10:48:02;147616.63;;;24.40;42.88
5877;BME280;2964;42.144;24.730;2023-05-22T10:50:29;147631.84;;;24.46;42.20
5877;BME280;2964;42.144;24.730;2023-05-22T10:53:17;147680.16;;;24.66;42.41
5877;BME280;2964;42.144;24.730;2023-05-22T10:55:46;147614.06;;;24.39;43.90
5877;BME280;2964;42.144;24.730;2023-05-22T10:58:13;147705.50;;;24.76;43.44
5877;BME280;2964;42.144;24.730;2023-05-22T11:00:39;147814.66;;;25.20;42.16
5877;BME280;2964;42.144;24.730;2023-05-22T11:03:08;147840.13;;;25.31;42.43
5877;BME280;2964;42.144;24.730;2023-05-22T11:05:36;147757.56;;;24.97;42.60
5877;BME280;2964;42.144;24.730;2023-05-22T11:11:12;147680.16;;;24.66;40.54
5877;BME280;2964;42.144;24.730;2023-05-22T11:13:39;147688.97;;;24.70;39.82
5877;BME280;2964;42.144;24.730;2023-05-22T11:16:10;147685.22;;;24.68;41.03
5877;BME280;2964;42.144;24.730;2023-05-22T11:18:38;147650.91;;;24.54;39.87
5877;BME280;2964;42.144;24.730;2023-05-22T11:21:08;147718.19;;;24.81;40.70
5877;BME280;2964;42.144;24.730;2023-05-22T11:23:36;147756.25;;;24.97;40.43
5877;BME280;2964;42.144;24.730;2023-05-22T11:26:19;147774.03;;;25.04;40.13
5877;BME280;2964;42.144;24.730;2023-05-22T11:28:50;147706.75;;;24.77;38.91
5877;BME280;2964;42.144;24.730;2023-05-22T11:31:19;147720.72;;;24.82;39.88
5877;BME280;2964;42.144;24.730;2023-05-22T11:33:48;147695.34;;;24.72;41.57
5877;BME280;2964;42.144;24.730;2023-05-22T11:36:15;147601.38;;;24.34;42.81
5877;BME280;2964;42.144;24.730;2023-05-22T11:38:43;147531.63;;;24.06;41.88
5877;BME280;2964;42.144;24.730;2023-05-22T11:41:09;147570.97;;;24.22;41.05
5877;BME280;2964;42.144;24.730;2023-05-22T11:43:37;147545.56;;;24.12;39.66
5877;BME280;2964;42.144;24.730;2023-05-22T11:46:05;147441.50;;;23.69;40.64
5877;BME280;2964;42.144;24.730;2023-05-22T11:48:32;147215.78;;;22.78;51.91
5877;BME280;2964;42.144;24.730;2023-05-22T11:51:00;146931.91;;;21.63;63.43
5877;BME280;2964;42.144;24.730;2023-05-22T11:53:28;146714.06;;;20.75;68.52
5877;BME280;2964;42.144;24.730;2023-05-22T11:56:00;146728.03;;;20.80;72.12
5877;BME280;2964;42.144;24.730;2023-05-22T11:58:27;146572.31;;;20.17;84.09
5877;BME280;2964;42.144;24.730;2023-05-22T12:00:57;146099.34;;;18.25;89.40
5877;BME280;2964;42.144;24.730;2023-05-22T12:03:24;145904.78;;;17.46;91.69
5877;BME280;2964;42.144;24.730;2023-05-22T12:05:51;145844.19;;;17.22;97.71
5877;BME280;2964;42.144;24.730;2023-05-22T12:08:19;145788.66;;;16.99;98.46
5877;BME280;2964;42.144;24.730;2023-05-22T12:10:47;145796.19;;;17.02;100.00
5877;BME280;2964;42.144;24.730;2023-05-22T12:13:21;145782.31;;;16.96;100.00
5877;BME280;2964;42.144;24.730;2023-05-22T12:15:48;145710.31;;;16.67;100.00
5877;BME280;2964;42.144;24.730;2023-05-22T12:18:17;145763.38;;;16.89;100.00
5877;BME280;2964;42.144;24.730;2023-05-22T12:20:44;145829.03;;;17.15;100.00
5877;BME280;2964;42.144;24.730;2023-05-22T12:23:11;145864.38;;;17.30;100.00
5877;BME280;2964;42.144;24.730;2023-05-22T12:25:39;145861.88;;;17.29;100.00
5877;BME280;2964;42.144;24.730;2023-05-22T12:28:06;145892.19;;;17.41;100.00
5877;BME280;2964;42.144;24.730;2023-05-22T12:30:39;145829.03;;;17.15;100.00
5877;BME280;2964;42.144;24.730;2023-05-22T12:33:11;145840.38;;;17.20;100.00
5877;BME280;2964;42.144;24.730;2023-05-22T12:35:39;145625.78;;;16.33;100.00
5877;BME280;2964;42.144;24.730;2023-05-22T12:38:06;145799.97;;;17.04;100.00
5877;BME280;2964;42.144;24.730;2023-05-22T12:40:34;145669.97;;;16.51;100.00
5877;BME280;2964;42.144;24.730;2023-05-22T12:43:02;145633.38;;;16.36;100.00
5877;BME280;2964;42.144;24.730;2023-05-22T12:45:29;145659.84;;;16.47;100.00
5877;BME280;2964;42.144;24.730;2023-05-22T12:47:56;145764.63;;;16.89;100.00
5877;BME280;2964;42.144;24.730;2023-05-22T12:50:23;145770.97;;;16.92;100.00
5877;BME280;2964;42.144;24.730;2023-05-22T12:52:50;145769.72;;;16.91;100.00
5877;BME280;2964;42.144;24.730;2023-05-22T12:55:16;145716.66;;;16.70;100.00
5877;BME280;2964;42.144;24.730;2023-05-22T12:57:43;145796.19;;;17.02;100.00
5877;BME280;2964;42.144;24.730;2023-05-22T13:00:12;145773.47;;;16.93;100.00
5877;BME280;2964;42.144;24.730;2023-05-22T13:02:39;145856.81;;;17.27;100.00